createdAt,value
2022-08-07T00:01:44.419Z,0.63
2022-08-07T00:04:11.222Z,1.88
2022-08-07T00:06:51.359Z,2.33
2022-08-07T00:09:22.368Z,1.88
2022-08-07T00:11:56.196Z,3.97
2022-08-07T00:14:30.194Z,0.98
2022-08-07T00:16:58.824Z,2.15
2022-08-07T00:19:34.188Z,1.50
2022-08-07T00:22:13.064Z,0.90
2022-08-07T00:24:52.108Z,1.13
2022-08-07T00:27:19.280Z,2.05
2022-08-07T00:29:49.756Z,1.27
2022-08-07T00:32:17.768Z,2.90
2022-08-07T00:34:55.389Z,3.97
2022-08-07T00:37:22.745Z,1.38
2022-08-07T00:39:54.654Z,0.85
2022-08-07T00:42:28.997Z,1.55
2022-08-07T00:44:56.520Z,2.88
2022-08-07T00:48:09.741Z,0.80
2022-08-07T00:50:19.536Z,2.03
2022-08-07T00:52:57.870Z,1.25
2022-08-07T00:56:02.117Z,1.38
2022-08-07T00:58:12.558Z,1.95
2022-08-07T01:00:51.393Z,1.27
2022-08-07T01:03:57.060Z,1.95
2022-08-07T01:06:09.248Z,1.05
2022-08-07T01:08:36.340Z,0.85
2022-08-07T01:12:09.490Z,3.42
2022-08-07T01:13:57.982Z,2.28
2022-08-07T01:16:29.950Z,3.30
2022-08-07T01:18:58.075Z,3.27
2022-08-07T01:21:27.072Z,2.75
2022-08-07T01:23:56.040Z,0.77
2022-08-07T01:26:26.074Z,1.15
2022-08-07T01:28:54.107Z,0.70
2022-08-07T01:31:21.624Z,2.15
2022-08-07T01:33:55.974Z,0.70
2022-08-07T01:36:33.753Z,3.30
2022-08-07T01:39:01.571Z,0.75
2022-08-07T01:41:36.980Z,1.40
2022-08-07T01:44:05.946Z,0.70
2022-08-07T01:46:33.041Z,3.33
2022-08-07T01:49:00.260Z,1.23
2022-08-07T01:52:04.258Z,0.90
2022-08-07T01:54:33.018Z,2.85
2022-08-07T01:57:24.395Z,1.73
2022-08-07T02:00:02.614Z,1.70
2022-08-07T02:03:12.366Z,2.67
2022-08-07T02:05:48.548Z,3.47
2022-08-07T02:08:27.138Z,0.82
2022-08-07T02:10:57.943Z,1.13
2022-08-07T02:13:56.284Z,0.98
2022-08-07T02:16:15.192Z,1.85
2022-08-07T02:18:46.947Z,1.95
2022-08-07T02:21:16.090Z,2.25
2022-08-07T02:23:44.709Z,1.77
2022-08-07T02:26:33.106Z,2.47
2022-08-07T02:29:00.035Z,2.70
2022-08-07T02:31:29.365Z,2.45
2022-08-07T02:34:03.170Z,1.15
2022-08-07T02:36:32.991Z,1.50
2022-08-07T02:39:04.139Z,4.18
2022-08-07T02:41:50.718Z,1.23
2022-08-07T02:44:22.064Z,2.05
2022-08-07T02:46:52.592Z,1.15
2022-08-07T02:49:28.648Z,3.50
2022-08-07T02:52:09.607Z,2.20
2022-08-07T02:54:41.649Z,3.55
2022-08-07T02:57:13.519Z,3.42
2022-08-07T02:59:45.620Z,1.48
2022-08-07T03:02:22.930Z,1.40
2022-08-07T03:04:51.368Z,2.38
2022-08-07T03:07:18.973Z,1.20
2022-08-07T03:09:51.974Z,1.90
2022-08-07T03:12:22.670Z,2.47
2022-08-07T03:14:58.253Z,1.73
2022-08-07T03:17:30.394Z,1.70
2022-08-07T03:20:03.755Z,1.10
2022-08-07T03:22:30.977Z,2.80
2022-08-07T03:24:59.940Z,1.40
2022-08-07T03:27:30.259Z,2.08
2022-08-07T03:29:58.679Z,1.70
2022-08-07T03:32:29.575Z,1.40
2022-08-07T03:35:17.022Z,3.13
2022-08-07T03:37:53.850Z,2.05
2022-08-07T03:40:22.442Z,1.40
2022-08-07T03:42:50.698Z,1.98
2022-08-07T03:45:30.437Z,2.55
2022-08-07T03:47:58.871Z,2.47
2022-08-07T03:50:28.561Z,4.20
2022-08-07T03:52:58.002Z,9.05
2022-08-07T03:55:42.790Z,4.97
2022-08-07T03:59:07.432Z,4.40
2022-08-07T04:01:00.916Z,2.53
2022-08-07T04:03:28.465Z,2.33
2022-08-07T04:06:37.952Z,2.33
2022-08-07T04:09:03.304Z,1.90
2022-08-07T04:12:23.412Z,1.85
2022-08-07T04:14:38.798Z,6.00
2022-08-07T04:17:20.456Z,5.22
2022-08-07T04:19:55.321Z,4.72
2022-08-07T04:22:29.059Z,1.30
2022-08-07T04:24:58.355Z,2.60
2022-08-07T04:27:26.492Z,1.70
2022-08-07T04:30:01.485Z,2.08
2022-08-07T04:32:34.717Z,1.48
2022-08-07T04:35:03.946Z,3.15
2022-08-07T04:38:00.925Z,1.95
2022-08-07T04:40:20.293Z,1.55
2022-08-07T04:42:52.486Z,2.58
2022-08-07T04:45:44.520Z,1.55
2022-08-07T04:48:13.751Z,2.22
2022-08-07T04:50:59.625Z,1.67
2022-08-07T04:54:02.033Z,5.47
2022-08-07T04:58:11.835Z,1.73
2022-08-07T05:00:12.396Z,3.08
2022-08-07T05:02:22.840Z,1.30
2022-08-07T05:04:57.513Z,1.92
2022-08-07T05:07:36.972Z,2.63
2022-08-07T05:10:13.002Z,0.93
2022-08-07T05:12:46.404Z,4.82
2022-08-07T05:15:25.107Z,2.42
2022-08-07T05:17:55.676Z,0.80
2022-08-07T05:20:27.969Z,1.60
2022-08-07T05:23:00.378Z,2.35
2022-08-07T05:26:10.489Z,1.80
2022-08-07T05:28:22.608Z,1.77
2022-08-07T05:30:55.060Z,1.05
2022-08-07T05:33:24.264Z,1.88
2022-08-07T05:35:55.170Z,0.60
2022-08-07T05:38:59.412Z,1.48
2022-08-07T05:41:14.261Z,0.55
2022-08-07T05:44:07.613Z,0.68
2022-08-07T05:46:36.948Z,1.10
2022-08-07T05:49:11.875Z,1.35
2022-08-07T05:51:40.052Z,3.00
2022-08-07T05:54:13.025Z,2.13
2022-08-07T05:56:55.448Z,1.23
2022-08-07T05:59:24.412Z,2.45
2022-08-07T06:01:51.843Z,3.30
2022-08-07T06:04:21.360Z,4.47
2022-08-07T06:07:03.941Z,4.40
2022-08-07T06:09:56.639Z,2.13
2022-08-07T06:12:21.056Z,5.68
2022-08-07T06:14:55.307Z,1.10
2022-08-07T06:17:32.018Z,2.28
2022-08-07T06:20:05.733Z,1.10
2022-08-07T06:22:38.917Z,10.43
2022-08-07T06:25:10.291Z,14.40
2022-08-07T06:27:59.946Z,20.38
2022-08-07T06:30:35.659Z,19.33
2022-08-07T06:33:04.918Z,16.52
2022-08-07T06:35:47.629Z,21.17
2022-08-07T06:38:20.143Z,3.95
2022-08-07T06:40:50.008Z,13.82
2022-08-07T06:43:21.707Z,14.15
2022-08-07T06:45:49.938Z,7.18
2022-08-07T06:48:24.748Z,13.68
2022-08-07T06:50:54.115Z,10.57
2022-08-07T06:55:27.986Z,11.48
2022-08-07T06:56:15.049Z,6.80
2022-08-07T07:00:14.842Z,8.85
2022-08-07T07:01:33.291Z,18.60
2022-08-07T07:04:28.064Z,11.43
2022-08-07T07:07:00.939Z,9.68
2022-08-07T07:09:31.068Z,7.05
2022-08-07T07:12:15.623Z,8.15
2022-08-07T07:14:59.185Z,2.67
2022-08-07T07:17:50.380Z,3.13
2022-08-07T07:20:19.821Z,2.88
2022-08-07T07:24:08.576Z,2.55
2022-08-07T07:26:33.188Z,1.48
2022-08-07T07:28:42.518Z,1.50
2022-08-07T07:31:24.326Z,2.58
2022-08-07T07:33:59.459Z,1.70
2022-08-07T07:36:53.985Z,1.27
2022-08-07T07:39:22.849Z,0.80
2022-08-07T07:42:12.993Z,0.43
2022-08-07T07:44:42.853Z,1.10
2022-08-07T07:47:14.291Z,1.40
2022-08-07T07:50:36.106Z,1.17
2022-08-07T07:52:44.035Z,2.38
2022-08-07T07:55:16.296Z,1.98
2022-08-07T07:57:52.973Z,0.73
2022-08-07T08:00:29.752Z,0.38
2022-08-07T08:03:04.977Z,2.97
2022-08-07T08:05:43.245Z,3.53
2022-08-07T08:08:34.463Z,1.80
2022-08-07T08:11:09.305Z,1.27
2022-08-07T08:13:55.406Z,1.13
2022-08-07T08:16:35.109Z,1.35
2022-08-07T08:19:09.886Z,3.92
2022-08-07T08:22:09.728Z,2.23
2022-08-07T08:25:09.362Z,1.92
2022-08-07T08:27:56.312Z,2.72
2022-08-07T08:30:29.835Z,0.90
2022-08-07T08:33:00.359Z,0.85
2022-08-07T08:35:39.411Z,1.33
2022-08-07T08:38:15.598Z,2.42
2022-08-07T08:40:47.441Z,1.42
2022-08-07T08:43:42.359Z,2.10
2022-08-07T08:46:15.635Z,3.72
2022-08-07T08:48:51.475Z,2.05
2022-08-07T08:52:00.807Z,1.75
2022-08-07T08:54:29.197Z,2.13
2022-08-07T09:00:09.071Z,3.40
2022-08-07T09:02:37.531Z,1.05
2022-08-07T09:05:37.000Z,2.38
2022-08-07T09:08:09.181Z,0.60
2022-08-07T09:10:47.330Z,0.60
2022-08-07T09:13:35.242Z,0.77
2022-08-07T09:16:29.789Z,2.15
2022-08-07T09:19:51.503Z,0.43
2022-08-07T09:24:28.291Z,0.55
2022-08-07T09:25:14.773Z,0.88
2022-08-07T09:30:04.596Z,1.38
2022-08-07T09:33:41.164Z,2.28
2022-08-07T09:36:27.090Z,0.57
2022-08-07T09:39:11.551Z,0.45
2022-08-07T09:42:03.038Z,1.85
2022-08-07T09:44:58.613Z,0.45
2022-08-07T09:48:00.067Z,0.57
2022-08-07T09:50:40.666Z,0.22
2022-08-07T09:53:09.741Z,0.57
2022-08-07T09:56:04.214Z,0.63
2022-08-07T09:58:51.384Z,0.38
2022-08-07T10:01:52.123Z,0.50
2022-08-07T10:04:38.087Z,0.20
2022-08-07T10:07:34.318Z,0.55
2022-08-07T10:10:03.673Z,9.52
2022-08-07T10:12:52.897Z,2.05
2022-08-07T10:15:44.549Z,0.63
2022-08-07T10:18:15.116Z,0.55
2022-08-07T10:20:56.091Z,0.10
2022-08-07T10:24:05.082Z,0.50
2022-08-07T10:26:17.753Z,0.82
2022-08-07T10:29:11.915Z,0.43
2022-08-07T10:31:49.573Z,0.77
2022-08-07T10:34:18.122Z,0.20
2022-08-07T10:36:58.447Z,0.30
2022-08-07T10:39:41.699Z,1.60
2022-08-07T10:42:46.855Z,0.40
2022-08-07T10:45:45.180Z,0.25
2022-08-07T10:48:35.233Z,0.43
2022-08-07T10:51:03.888Z,1.75
2022-08-07T10:53:44.914Z,1.15
2022-08-07T10:56:33.062Z,2.38
2022-08-07T10:59:21.203Z,0.98
2022-08-07T11:02:11.981Z,0.20
2022-08-07T11:04:58.540Z,0.88
2022-08-07T11:07:58.551Z,0.38
2022-08-07T11:10:55.423Z,1.33
2022-08-07T11:14:43.825Z,1.15
2022-08-07T11:16:30.486Z,2.15
2022-08-07T11:19:21.591Z,1.00
2022-08-07T11:22:00.395Z,0.57
2022-08-07T11:27:13.383Z,2.90
2022-08-07T11:29:48.155Z,0.35
2022-08-07T11:32:35.178Z,0.30
2022-08-07T11:35:12.775Z,0.20
2022-08-07T11:38:10.278Z,1.50
2022-08-07T11:43:18.088Z,0.55
2022-08-07T11:46:24.216Z,2.38
2022-08-07T11:49:51.444Z,0.63
2022-08-07T11:52:13.656Z,2.60
2022-08-07T11:54:54.852Z,1.08
2022-08-07T11:58:00.504Z,0.75
2022-08-07T12:00:20.164Z,0.47
2022-08-07T12:03:01.240Z,0.65
2022-08-07T12:05:41.126Z,0.40
2022-08-07T12:08:34.805Z,1.40
2022-08-07T12:11:21.254Z,2.00
2022-08-07T12:14:19.145Z,0.20
2022-08-07T12:16:55.525Z,0.40
2022-08-07T12:19:35.650Z,1.60
2022-08-07T12:22:37.873Z,2.03
2022-08-07T12:26:21.931Z,1.00
2022-08-07T12:28:31.357Z,0.30
2022-08-07T12:31:06.280Z,0.63
2022-08-07T12:33:56.040Z,2.13
2022-08-07T12:36:32.730Z,1.50
2022-08-07T12:39:09.459Z,0.75
2022-08-07T12:41:53.174Z,2.08
2022-08-07T12:44:21.361Z,0.70
2022-08-07T12:47:01.714Z,0.82
2022-08-07T12:50:05.157Z,2.85
2022-08-07T12:52:47.306Z,1.37
2022-08-07T12:55:41.003Z,0.80
2022-08-07T12:58:16.746Z,1.60
2022-08-07T13:01:00.280Z,3.25
2022-08-07T13:03:54.855Z,0.82
2022-08-07T13:06:33.672Z,4.68
2022-08-07T13:09:12.638Z,0.38
2022-08-07T13:12:02.672Z,1.77
2022-08-07T13:14:46.866Z,0.20
2022-08-07T13:17:41.172Z,1.13
2022-08-07T13:20:13.054Z,2.53
2022-08-07T13:22:52.546Z,0.77
2022-08-07T13:25:29.768Z,0.80
2022-08-07T13:28:10.882Z,0.65
2022-08-07T13:30:44.674Z,0.20
2022-08-07T13:34:29.973Z,0.85
2022-08-07T13:36:28.950Z,0.32
2022-08-07T13:39:49.284Z,2.13
2022-08-07T13:42:04.272Z,0.10
2022-08-07T13:44:37.114Z,1.98
2022-08-07T13:47:09.493Z,0.40
2022-08-07T13:50:32.910Z,3.00
2022-08-07T13:52:36.249Z,0.73
2022-08-07T13:55:31.186Z,0.63
2022-08-07T13:58:28.021Z,0.63
2022-08-07T14:01:09.911Z,0.50
2022-08-07T14:04:07.266Z,0.60
2022-08-07T14:09:00.337Z,1.48
2022-08-07T14:11:53.420Z,2.58
2022-08-07T14:14:31.025Z,1.02
2022-08-07T14:17:32.366Z,1.10
2022-08-07T14:20:43.188Z,3.95
2022-08-07T14:22:54.784Z,0.60
2022-08-07T14:25:25.881Z,0.38
2022-08-07T14:28:11.705Z,0.38
2022-08-07T14:30:40.873Z,0.88
2022-08-07T14:35:57.399Z,0.90
2022-08-07T14:38:33.342Z,2.65
2022-08-07T14:43:58.583Z,0.40
2022-08-07T14:46:37.792Z,0.47
2022-08-07T14:49:56.899Z,0.65
2022-08-07T14:52:10.559Z,0.43
2022-08-07T14:54:55.149Z,0.15
2022-08-07T14:57:24.759Z,2.00
2022-08-07T15:00:04.875Z,0.15
2022-08-07T15:02:34.688Z,0.45
2022-08-07T15:05:20.253Z,1.30
2022-08-07T15:07:52.314Z,0.57
2022-08-07T15:13:17.467Z,2.28
2022-08-07T15:15:52.415Z,1.90
2022-08-07T15:21:43.858Z,0.47
2022-08-07T15:27:13.007Z,0.22
2022-08-07T15:32:40.057Z,0.30
2022-08-07T15:36:00.324Z,0.90
2022-08-07T15:38:30.057Z,0.17
2022-08-07T15:43:55.771Z,0.40
2022-08-07T15:46:32.142Z,0.40
2022-08-07T15:49:15.114Z,0.90
2022-08-07T15:52:09.552Z,0.98
2022-08-07T15:54:40.712Z,0.30
2022-08-07T15:57:39.434Z,1.30
2022-08-07T16:00:04.460Z,0.63
2022-08-07T16:02:45.762Z,0.55
2022-08-07T16:05:17.521Z,0.85
2022-08-07T16:08:31.422Z,0.30
2022-08-07T16:10:48.646Z,0.60
2022-08-07T16:13:59.183Z,0.95
2022-08-07T16:16:47.618Z,0.95
2022-08-07T16:19:42.934Z,3.15
2022-08-07T16:22:37.710Z,0.75
2022-08-07T16:25:23.207Z,0.68
2022-08-07T16:28:43.464Z,0.70
2022-08-07T16:31:00.970Z,0.38
2022-08-07T16:34:06.033Z,1.88
2022-08-07T16:36:20.648Z,3.17
2022-08-07T16:39:01.181Z,1.75
2022-08-07T16:41:57.417Z,2.03
2022-08-07T16:47:52.931Z,0.90
2022-08-07T16:51:07.272Z,1.98
2022-08-07T16:54:06.103Z,1.60
2022-08-07T16:56:54.399Z,1.48
2022-08-07T16:59:46.344Z,0.22
2022-08-07T17:02:51.662Z,2.67
2022-08-07T17:06:02.139Z,1.52
2022-08-07T17:08:09.197Z,0.80
2022-08-07T17:10:39.691Z,3.95
2022-08-07T17:13:25.672Z,2.42
2022-08-07T17:16:12.915Z,0.35
2022-08-07T17:18:58.327Z,0.70
2022-08-07T17:21:28.844Z,0.40
2022-08-07T17:24:27.714Z,0.10
2022-08-07T17:27:03.624Z,0.43
2022-08-07T17:30:15.158Z,1.38
2022-08-07T17:32:35.622Z,0.65
2022-08-07T17:35:55.113Z,0.98
2022-08-07T17:38:40.433Z,0.47
2022-08-07T17:42:02.295Z,0.30
2022-08-07T17:44:14.131Z,1.08
2022-08-07T17:46:52.435Z,1.27
2022-08-07T17:49:24.136Z,2.70
2022-08-07T17:52:10.451Z,0.95
2022-08-07T17:54:54.053Z,0.98
2022-08-07T17:57:59.219Z,1.00
2022-08-07T18:00:34.442Z,0.55
2022-08-07T18:04:04.127Z,0.30
2022-08-07T18:06:38.207Z,0.65
2022-08-07T18:09:05.874Z,1.10
2022-08-07T18:12:17.385Z,0.25
2022-08-07T18:14:37.485Z,2.00
2022-08-07T18:17:21.989Z,0.35
2022-08-07T18:21:04.142Z,0.95
2022-08-07T18:23:06.448Z,0.28
2022-08-07T18:26:00.982Z,2.70
2022-08-07T18:28:57.715Z,0.20
2022-08-07T18:31:40.769Z,0.30
2022-08-07T18:34:37.684Z,0.30
2022-08-07T18:38:55.332Z,0.32
2022-08-07T18:40:43.959Z,1.55
2022-08-07T18:43:36.913Z,0.38
2022-08-07T18:46:21.697Z,0.43
2022-08-07T18:50:05.101Z,1.90
2022-08-07T18:52:34.674Z,0.88
2022-08-07T18:54:49.685Z,0.73
2022-08-07T18:57:29.690Z,0.30
2022-08-07T19:00:34.458Z,0.20
2022-08-07T19:03:16.335Z,1.95
2022-08-07T19:06:05.075Z,0.80
2022-08-07T19:08:52.093Z,2.10
2022-08-07T19:11:36.172Z,1.88
2022-08-07T19:14:11.589Z,2.55
2022-08-07T19:17:06.810Z,0.82
2022-08-07T19:19:55.802Z,0.80
2022-08-07T19:22:34.082Z,2.30
2022-08-07T19:26:23.357Z,1.35
2022-08-07T19:28:30.006Z,1.85
2022-08-07T19:33:46.931Z,0.82
2022-08-07T19:36:27.687Z,1.55
2022-08-07T19:38:56.122Z,1.67
2022-08-07T19:41:39.358Z,1.20
2022-08-07T19:44:22.003Z,2.20
2022-08-07T19:46:55.607Z,2.50
2022-08-07T19:49:56.429Z,1.08
2022-08-07T19:52:18.186Z,1.75
2022-08-07T19:54:56.784Z,1.90
2022-08-07T19:58:00.566Z,1.88
2022-08-07T20:00:28.168Z,0.93
2022-08-07T20:03:04.378Z,4.03
2022-08-07T20:06:00.713Z,1.20
2022-08-07T20:08:24.399Z,3.80
2022-08-07T20:10:56.765Z,3.92
2022-08-07T20:13:33.808Z,1.15
2022-08-07T20:16:02.640Z,1.02
2022-08-07T20:18:33.437Z,0.30
2022-08-07T20:21:03.529Z,1.52
2022-08-07T20:23:49.553Z,0.60
2022-08-07T20:26:29.830Z,1.48
2022-08-07T20:29:10.245Z,1.23
2022-08-07T20:31:46.539Z,1.83
2022-08-07T20:34:15.074Z,1.42
2022-08-07T20:36:44.011Z,0.57
2022-08-07T20:39:31.082Z,1.40
2022-08-07T20:42:13.110Z,4.80
2022-08-07T20:44:45.580Z,1.92
2022-08-07T20:47:18.689Z,1.17
2022-08-07T20:49:59.873Z,1.38
2022-08-07T20:52:51.062Z,0.45
2022-08-07T20:55:23.928Z,3.60
2022-08-07T20:58:02.372Z,0.67
2022-08-07T21:00:42.790Z,1.50
2022-08-07T21:03:12.436Z,0.57
2022-08-07T21:05:54.453Z,0.95
2022-08-07T21:08:44.575Z,1.70
2022-08-07T21:11:16.268Z,1.67
2022-08-07T21:14:16.416Z,3.72
2022-08-07T21:16:56.122Z,3.53
2022-08-07T21:19:32.280Z,0.68
2022-08-07T21:22:16.163Z,1.20
2022-08-07T21:24:55.981Z,1.58
2022-08-07T21:27:47.353Z,2.78
2022-08-07T21:30:15.791Z,1.85
2022-08-07T21:32:49.613Z,4.13
2022-08-07T21:35:34.743Z,0.75
2022-08-07T21:38:35.924Z,1.35
2022-08-07T21:41:10.091Z,0.40
2022-08-07T21:44:01.737Z,2.17
2022-08-07T21:46:43.843Z,1.45
2022-08-07T21:50:01.280Z,1.15
2022-08-07T21:52:29.529Z,1.85
2022-08-07T21:55:03.757Z,2.25
2022-08-07T21:57:44.961Z,3.05
2022-08-07T22:00:24.864Z,5.60
2022-08-07T22:03:05.876Z,0.40
2022-08-07T22:05:44.594Z,1.67
2022-08-07T22:08:18.293Z,4.60
2022-08-07T22:10:46.557Z,0.50
2022-08-07T22:13:15.853Z,1.65
2022-08-07T22:16:43.245Z,1.50
2022-08-07T22:19:02.177Z,2.38
2022-08-07T22:22:01.983Z,0.50
2022-08-07T22:24:32.865Z,2.53
2022-08-07T22:27:10.296Z,3.85
2022-08-07T22:29:48.258Z,2.38
2022-08-07T22:32:35.550Z,1.20
2022-08-07T22:35:04.878Z,2.78
2022-08-07T22:38:02.802Z,2.95
2022-08-07T22:40:38.059Z,0.70
2022-08-07T22:43:10.167Z,0.60
2022-08-07T22:46:40.794Z,0.47
2022-08-07T22:49:02.318Z,2.00
2022-08-07T22:51:44.184Z,4.38
2022-08-07T22:54:19.531Z,2.65
2022-08-07T22:56:49.380Z,1.67
2022-08-07T22:59:44.810Z,0.73
2022-08-07T23:02:12.410Z,0.75
2022-08-07T23:04:58.166Z,1.17
2022-08-07T23:07:41.449Z,2.55
2022-08-07T23:10:37.870Z,0.65
2022-08-07T23:13:08.773Z,1.70
2022-08-07T23:16:05.524Z,2.75
2022-08-07T23:18:35.685Z,1.33
2022-08-07T23:24:06.251Z,1.02
2022-08-07T23:26:54.803Z,1.52
2022-08-07T23:29:43.621Z,2.08
2022-08-07T23:34:20.880Z,0.60
2022-08-07T23:35:26.429Z,3.25
2022-08-07T23:38:14.431Z,1.95
2022-08-07T23:41:05.379Z,3.53
2022-08-07T23:43:51.355Z,0.50
2022-08-07T23:46:42.988Z,1.75
2022-08-07T23:49:50.023Z,1.13
2022-08-07T23:53:01.037Z,0.65
2022-08-07T23:55:52.071Z,1.23
2022-08-07T23:58:21.201Z,3.67
